Time;durP1;ratioP1;P1;durP2;ratioP2;P2;SDS_P1;SDS_P2;PMS_P1;PMS_P2;Temp;Humidity;BMP_temperature;BMP_pressure;BME280_temperature;BME280_humidity;BME280_pressure;Samples;Min_cycle;Max_cycle;Signal;HPM_P1;HPM_P2
2022/08/27 00:01:25;;;;;;;5.70;1.10;;;18.20;99.90;;;;;;5099220;28;20040;-67
2022/08/27 00:03:55;;;;;;;6.40;1.60;;;18.20;99.90;;;;;;5088990;28;20105;-79
2022/08/27 00:06:22;;;;;;;6.57;1.20;;;18.20;99.90;;;;;;5088254;28;20043;-67
2022/08/27 00:08:49;;;;;;;4.15;1.00;;;18.20;99.90;;;;;;5088818;28;20058;-68
2022/08/27 00:11:17;;;;;;;10.23;1.90;;;18.10;99.90;;;;;;5089757;28;20457;-67
2022/08/27 00:13:44;;;;;;;6.78;1.48;;;18.20;99.90;;;;;;5089967;28;20089;-67
2022/08/27 00:16:13;;;;;;;7.97;1.50;;;18.10;99.90;;;;;;5089721;28;20059;-67
2022/08/27 00:18:40;;;;;;;5.88;1.80;;;18.10;99.90;;;;;;5088502;28;20102;-67
2022/08/27 00:21:06;;;;;;;9.68;1.73;;;18.10;99.90;;;;;;5123906;27;20119;-67
2022/08/27 00:23:31;;;;;;;12.52;1.52;;;18.10;99.90;;;;;;5088239;28;20081;-67
2022/08/27 00:25:58;;;;;;;9.90;1.30;;;18.10;99.90;;;;;;5090125;28;20044;-81
2022/08/27 00:28:25;;;;;;;8.57;1.52;;;18.10;99.90;;;;;;5098929;28;22144;-67
2022/08/27 00:30:51;;;;;;;6.90;1.25;;;18.10;99.90;;;;;;5097421;28;20059;-67
2022/08/27 00:33:17;;;;;;;5.65;1.33;;;18.20;99.90;;;;;;5088362;28;20047;-76
2022/08/27 00:35:43;;;;;;;6.53;1.20;;;18.20;99.90;;;;;;5079080;28;20424;-67
2022/08/27 00:38:08;;;;;;;5.50;1.40;;;18.20;99.90;;;;;;5089785;28;20048;-67
2022/08/27 00:40:34;;;;;;;7.22;1.60;;;18.20;99.90;;;;;;5087476;28;20087;-67
2022/08/27 00:43:02;;;;;;;5.78;1.38;;;18.20;99.90;;;;;;5089736;28;20044;-67
2022/08/27 00:45:29;;;;;;;9.05;1.75;;;18.20;99.90;;;;;;5086859;28;20040;-68
2022/08/27 00:47:58;;;;;;;6.47;1.83;;;18.10;99.90;;;;;;5081507;28;20079;-84
2022/08/27 00:50:41;;;;;;;6.75;1.25;;;18.10;99.90;;;;;;5086058;28;20036;-67
2022/08/27 00:53:11;;;;;;;7.85;2.05;;;18.10;99.90;;;;;;5088415;28;20102;-68
2022/08/27 00:55:49;;;;;;;8.88;2.10;;;18.10;99.90;;;;;;5088454;28;20043;-67
2022/08/27 00:58:38;;;;;;;8.10;1.90;;;18.20;99.90;;;;;;5086911;28;20036;-67
2022/08/27 01:01:07;;;;;;;7.90;1.63;;;18.10;99.90;;;;;;5088078;28;20147;-76
2022/08/27 01:03:33;;;;;;;7.82;1.40;;;18.10;99.90;;;;;;5087705;28;20103;-67
2022/08/27 01:06:01;;;;;;;10.10;1.95;;;18.10;99.90;;;;;;5088357;28;20084;-67
2022/08/27 01:08:30;;;;;;;11.63;1.63;;;18.10;99.90;;;;;;5087946;28;20062;-67
2022/08/27 01:10:58;;;;;;;6.22;1.50;;;18.20;99.90;;;;;;5087492;28;20036;-69
2022/08/27 01:13:26;;;;;;;11.20;1.92;;;18.20;99.90;;;;;;5088579;28;20063;-79
2022/08/27 01:15:57;;;;;;;7.13;1.55;;;18.20;99.90;;;;;;5087080;28;20066;-67
2022/08/27 01:18:27;;;;;;;6.55;1.45;;;18.20;99.90;;;;;;5121620;27;20126;-67
2022/08/27 01:21:11;;;;;;;11.80;1.75;;;18.20;99.90;;;;;;5087439;28;20048;-87
2022/08/27 01:24:01;;;;;;;10.98;1.88;;;18.20;99.90;;;;;;5085216;28;20044;-67
2022/08/27 01:26:27;;;;;;;8.98;1.63;;;18.30;99.90;;;;;;5087603;28;20059;-81
2022/08/27 01:28:53;;;;;;;7.78;2.20;;;18.30;99.90;;;;;;5119866;27;20051;-67
2022/08/27 01:31:19;;;;;;;8.95;1.98;;;18.30;99.90;;;;;;5096494;28;20036;-70
2022/08/27 01:34:01;;;;;;;9.77;1.52;;;18.30;99.90;;;;;;5087625;28;20040;-68
2022/08/27 01:36:27;;;;;;;7.43;1.67;;;18.30;99.90;;;;;;5087866;28;20055;-69
2022/08/27 01:38:53;;;;;;;18.30;2.25;;;18.30;99.90;;;;;;5088779;28;20048;-67
2022/08/27 01:41:20;;;;;;;17.50;1.60;;;18.20;99.90;;;;;;5096174;28;20441;-67
2022/08/27 01:43:45;;;;;;;9.32;1.92;;;18.20;99.90;;;;;;5088229;28;20044;-67
2022/08/27 01:46:11;;;;;;;5.30;1.50;;;18.20;99.90;;;;;;5086602;28;20040;-76
2022/08/27 01:48:37;;;;;;;12.77;1.48;;;18.20;99.90;;;;;;5088220;28;20040;-78
2022/08/27 01:51:03;;;;;;;6.80;1.50;;;18.20;99.90;;;;;;5115126;27;20544;-67
2022/08/27 01:53:30;;;;;;;6.63;1.38;;;18.20;99.90;;;;;;5085456;28;20450;-86
2022/08/27 01:55:56;;;;;;;8.45;1.30;;;18.20;99.90;;;;;;5088417;28;20371;-67
2022/08/27 01:58:27;;;;;;;6.55;1.48;;;18.10;99.90;;;;;;5085272;28;20040;-67
2022/08/27 02:00:56;;;;;;;11.60;1.55;;;18.10;99.90;;;;;;5088505;28;20044;-68
2022/08/27 02:03:22;;;;;;;8.95;2.00;;;18.10;99.90;;;;;;5091179;28;20043;-67
2022/08/27 02:05:48;;;;;;;8.13;1.65;;;18.10;99.90;;;;;;5088006;28;20441;-68
2022/08/27 02:08:15;;;;;;;5.20;1.38;;;18.10;99.90;;;;;;5085369;28;20048;-68
2022/08/27 02:10:43;;;;;;;12.90;1.90;;;18.00;99.90;;;;;;5087218;28;20040;-82
2022/08/27 02:13:12;;;;;;;6.93;1.02;;;18.10;99.90;;;;;;5088648;28;20039;-68
2022/08/27 02:15:39;;;;;;;6.80;1.50;;;18.00;99.90;;;;;;5085948;28;20074;-70
2022/08/27 02:18:06;;;;;;;8.50;2.05;;;18.00;99.90;;;;;;5087923;28;20107;-79
2022/08/27 02:20:32;;;;;;;5.47;1.38;;;18.00;99.90;;;;;;5086485;28;20051;-75
2022/08/27 02:22:58;;;;;;;9.43;1.60;;;17.90;99.90;;;;;;5088717;28;20070;-77
2022/08/27 02:25:24;;;;;;;13.80;1.90;;;17.90;99.90;;;;;;5119539;27;20043;-67
2022/08/27 02:27:50;;;;;;;9.50;1.30;;;17.90;99.90;;;;;;5086882;28;20134;-68
2022/08/27 02:30:19;;;;;;;9.30;1.77;;;17.90;99.90;;;;;;5087561;28;20123;-67
2022/08/27 02:32:46;;;;;;;4.50;1.30;;;17.80;99.90;;;;;;5103060;28;20048;-68
2022/08/27 02:35:16;;;;;;;10.48;2.00;;;17.80;99.90;;;;;;5100590;28;20549;-67
2022/08/27 02:37:44;;;;;;;5.40;1.20;;;17.70;99.90;;;;;;5085479;28;20568;-67
2022/08/27 02:40:12;;;;;;;7.20;1.90;;;17.80;99.90;;;;;;5087337;28;20434;-67
2022/08/27 02:42:38;;;;;;;5.55;1.40;;;17.70;99.90;;;;;;5085920;28;20075;-67
2022/08/27 02:45:06;;;;;;;4.53;1.20;;;17.70;99.90;;;;;;5119631;27;20105;-68
2022/08/27 02:47:34;;;;;;;7.63;1.40;;;17.60;99.90;;;;;;5085803;28;20059;-67
2022/08/27 02:50:00;;;;;;;5.25;1.30;;;17.60;99.90;;;;;;5085824;28;20501;-67
2022/08/27 02:52:28;;;;;;;9.50;2.08;;;17.60;99.90;;;;;;5087409;28;20044;-67
2022/08/27 02:54:57;;;;;;;4.63;1.55;;;17.60;99.90;;;;;;5086253;28;20106;-67
2022/08/27 02:57:23;;;;;;;;;;;17.60;99.90;;;;;;5088128;28;20052;-68
2022/08/27 02:59:50;;;;;;;8.57;1.52;;;17.60;99.90;;;;;;5117979;27;20408;-67
2022/08/27 03:02:17;;;;;;;3.55;1.25;;;17.60;99.90;;;;;;5087493;28;20450;-68
2022/08/27 03:04:43;;;;;;;3.05;1.42;;;17.60;99.90;;;;;;5112137;27;20041;-67
2022/08/27 03:07:09;;;;;;;10.23;1.45;;;17.60;99.90;;;;;;5084452;28;20131;-83
2022/08/27 03:09:35;;;;;;;7.82;1.60;;;17.60;99.90;;;;;;5087071;28;20055;-67
2022/08/27 03:12:02;;;;;;;9.45;1.50;;;17.60;99.90;;;;;;5085241;28;20028;-67
2022/08/27 03:14:28;;;;;;;3.47;1.23;;;17.60;99.90;;;;;;5120408;28;20047;-84
2022/08/27 03:16:54;;;;;;;5.05;1.23;;;17.60;99.90;;;;;;5085880;28;20040;-67
2022/08/27 03:19:20;;;;;;;6.93;1.35;;;17.60;99.90;;;;;;5111004;28;20561;-67
2022/08/27 03:21:47;;;;;;;6.90;1.27;;;17.60;99.90;;;;;;5086116;28;20036;-68
2022/08/27 03:24:13;;;;;;;6.57;1.40;;;17.60;99.90;;;;;;5087349;28;20486;-68
2022/08/27 03:26:39;;;;;;;5.68;1.63;;;17.60;99.90;;;;;;5090858;28;20043;-72
2022/08/27 03:29:06;;;;;;;6.22;1.27;;;17.60;99.90;;;;;;5095466;28;20049;-69
2022/08/27 03:31:32;;;;;;;6.10;1.17;;;17.70;99.90;;;;;;5091708;28;20468;-67
2022/08/27 03:34:06;;;;;;;3.88;1.02;;;17.60;99.90;;;;;;5089077;28;20302;-67
2022/08/27 03:36:32;;;;;;;11.27;2.17;;;17.60;99.90;;;;;;5091161;28;20043;-68
2022/08/27 03:38:58;;;;;;;7.15;1.52;;;17.60;99.90;;;;;;5090136;28;20036;-67
2022/08/27 03:41:24;;;;;;;5.18;1.35;;;17.60;99.90;;;;;;5093127;28;20055;-75
2022/08/27 03:43:53;;;;;;;6.63;1.50;;;17.50;99.90;;;;;;5090644;28;20036;-67
2022/08/27 03:46:21;;;;;;;4.25;1.15;;;17.50;99.90;;;;;;5089791;28;20502;-68
2022/08/27 03:48:47;;;;;;;3.38;1.55;;;17.40;99.90;;;;;;5090919;28;20123;-69
2022/08/27 03:51:14;;;;;;;5.35;1.25;;;17.40;99.90;;;;;;5092849;28;20040;-67
2022/08/27 03:53:42;;;;;;;8.65;1.73;;;17.40;99.90;;;;;;5126831;27;20040;-67
2022/08/27 03:56:09;;;;;;;5.22;1.30;;;17.40;99.90;;;;;;5092934;28;20047;-67
2022/08/27 03:58:37;;;;;;;5.18;1.55;;;17.40;99.90;;;;;;5091899;28;20114;-68
2022/08/27 04:01:04;;;;;;;5.82;1.35;;;17.30;99.90;;;;;;5100284;28;20059;-68
2022/08/27 04:03:30;;;;;;;3.47;1.45;;;17.30;99.90;;;;;;5089973;28;20051;-68
2022/08/27 04:05:57;;;;;;;4.22;1.30;;;17.30;99.90;;;;;;5091367;28;20036;-67
2022/08/27 04:08:24;;;;;;;8.25;1.55;;;17.30;99.90;;;;;;5088548;28;20066;-67
2022/08/27 04:10:50;;;;;;;6.82;1.45;;;17.30;99.90;;;;;;5090914;28;20505;-67
2022/08/27 04:13:17;;;;;;;5.47;1.60;;;17.30;99.90;;;;;;5087805;28;20054;-68
2022/08/27 04:15:45;;;;;;;5.57;1.00;;;17.30;99.90;;;;;;5089778;28;20040;-67
2022/08/27 04:18:15;;;;;;;10.85;1.73;;;17.30;99.90;;;;;;5089692;28;20482;-67
2022/08/27 04:20:47;;;;;;;9.02;1.90;;;17.40;99.90;;;;;;5089411;28;20051;-77
2022/08/27 04:23:14;;;;;;;6.45;1.38;;;17.40;99.90;;;;;;5103837;28;20036;-68
2022/08/27 04:25:43;;;;;;;6.28;1.77;;;17.40;99.90;;;;;;5088552;28;20540;-68
2022/08/27 04:28:09;;;;;;;2.85;0.98;;;17.40;99.90;;;;;;5090084;28;20097;-68
2022/08/27 04:30:40;;;;;;;9.13;1.40;;;17.40;99.90;;;;;;5088409;28;20047;-72
2022/08/27 04:33:06;;;;;;;6.82;1.80;;;17.40;99.90;;;;;;5100764;28;20061;-67
2022/08/27 04:35:32;;;;;;;10.75;1.77;;;17.40;99.90;;;;;;5088776;28;20119;-67
2022/08/27 04:37:57;;;;;;;4.30;1.10;;;17.30;99.90;;;;;;5088336;28;20071;-67
2022/08/27 04:41:18;;;;;;;6.40;1.52;;;17.30;99.90;;;;;;5090092;28;20073;-67
2022/08/27 04:43:09;;;;;;;9.68;1.50;;;17.20;99.90;;;;;;5097362;28;20039;-68
2022/08/27 04:45:43;;;;;;;6.97;1.55;;;17.20;99.90;;;;;;5089937;28;20496;-67
2022/08/27 04:48:09;;;;;;;5.82;1.55;;;17.20;99.90;;;;;;5088156;28;20044;-78
2022/08/27 04:50:43;;;;;;;15.88;1.90;;;17.10;99.90;;;;;;5090403;28;20047;-68
2022/08/27 04:53:10;;;;;;;6.35;1.42;;;17.10;99.90;;;;;;5089261;28;20032;-67
2022/08/27 04:55:47;;;;;;;9.80;1.55;;;17.10;99.90;;;;;;5088144;28;20048;-79
2022/08/27 04:58:14;;;;;;;6.53;1.67;;;17.10;99.90;;;;;;5089241;28;20105;-68
2022/08/27 05:00:47;;;;;;;4.88;1.63;;;17.00;99.90;;;;;;5090301;28;20094;-75
2022/08/27 05:03:14;;;;;;;8.00;1.58;;;17.10;99.90;;;;;;5083926;28;20074;-67
2022/08/27 05:05:41;;;;;;;13.65;2.00;;;17.00;99.90;;;;;;5089071;28;20479;-94
2022/08/27 05:08:09;;;;;;;4.95;1.60;;;17.00;99.90;;;;;;5088045;28;20534;-68
2022/08/27 05:10:43;;;;;;;3.35;1.20;;;17.00;99.90;;;;;;5118706;27;20044;-94
2022/08/27 05:13:09;;;;;;;11.13;1.80;;;17.00;99.90;;;;;;5119723;27;20105;-68
2022/08/27 05:15:35;;;;;;;5.03;1.50;;;16.90;99.90;;;;;;5089475;28;20048;-67
2022/08/27 05:18:02;;;;;;;6.45;1.77;;;17.00;99.90;;;;;;5081792;28;20043;-67
2022/08/27 05:20:29;;;;;;;11.57;1.77;;;16.90;99.90;;;;;;5089273;28;20157;-68
2022/08/27 05:22:56;;;;;;;6.93;1.38;;;16.90;99.90;;;;;;5088715;28;20051;-79
2022/08/27 05:25:23;;;;;;;6.68;1.80;;;16.90;99.90;;;;;;5088590;28;20043;-67
2022/08/27 05:27:49;;;;;;;12.00;2.05;;;16.90;99.90;;;;;;5088586;28;20044;-67
2022/08/27 05:30:15;;;;;;;9.25;1.67;;;16.90;99.90;;;;;;5087541;28;20101;-86
2022/08/27 05:32:41;;;;;;;6.20;1.65;;;17.00;99.90;;;;;;5090007;28;20115;-71
2022/08/27 05:35:08;;;;;;;9.30;1.60;;;17.00;99.90;;;;;;5121928;27;20044;-67
2022/08/27 05:37:34;;;;;;;8.48;1.63;;;17.00;99.90;;;;;;5107168;28;20436;-67
2022/08/27 05:40:01;;;;;;;14.10;1.48;;;17.00;99.90;;;;;;5098797;28;20039;-68
2022/08/27 05:42:31;;;;;;;8.60;1.45;;;16.90;99.90;;;;;;5095841;27;20511;-67
2022/08/27 05:44:57;;;;;;;3.50;1.30;;;16.90;99.90;;;;;;5096450;28;20039;-67
2022/08/27 05:47:23;;;;;;;9.45;1.75;;;16.90;99.90;;;;;;5093188;28;20075;-67
2022/08/27 05:49:53;;;;;;;8.27;1.50;;;17.00;99.90;;;;;;5093577;28;20376;-68
2022/08/27 05:52:20;;;;;;;;;;;17.00;99.90;;;;;;5096746;28;21371;-69
2022/08/27 05:54:46;;;;;;;11.27;1.80;;;17.00;99.90;;;;;;5070406;28;19920;-68
2022/08/27 05:57:11;;;;;;;6.78;1.23;;;17.10;99.90;;;;;;5086476;28;20089;-67
2022/08/27 06:02:21;;;;;;;9.10;1.63;;;17.20;99.90;;;;;;5086294;28;20040;-68
2022/08/27 06:04:47;;;;;;;5.45;1.40;;;17.30;99.90;;;;;;5096636;28;20042;-67
2022/08/27 06:07:13;;;;;;;6.57;1.70;;;17.40;99.90;;;;;;5099682;28;20054;-72
2022/08/27 06:09:40;;;;;;;9.63;1.60;;;17.50;99.90;;;;;;5086694;28;20044;-68
2022/08/27 06:12:07;;;;;;;12.52;1.90;;;17.60;99.90;;;;;;5087721;28;20039;-67
2022/08/27 06:14:35;;;;;;;7.78;1.52;;;17.60;99.90;;;;;;5068073;28;20048;-67
2022/08/27 06:17:01;;;;;;;9.50;1.52;;;17.70;99.90;;;;;;5082180;28;20087;-67
2022/08/27 06:19:27;;;;;;;11.57;1.60;;;17.80;99.90;;;;;;5084454;28;20047;-90
2022/08/27 06:21:53;;;;;;;6.13;1.38;;;17.90;99.90;;;;;;5084715;28;20051;-78
2022/08/27 06:24:18;;;;;;;9.63;1.60;;;18.00;99.90;;;;;;5085997;28;20509;-67
2022/08/27 06:26:44;;;;;;;6.28;1.27;;;18.00;99.90;;;;;;5086464;28;20066;-68
2022/08/27 06:29:11;;;;;;;16.95;2.25;;;18.10;99.90;;;;;;5085383;28;20528;-67
2022/08/27 06:31:38;;;;;;;9.02;1.90;;;18.10;99.90;;;;;;5084220;28;20059;-68
2022/08/27 06:34:06;;;;;;;9.55;2.00;;;18.10;99.90;;;;;;5086472;28;20052;-91
2022/08/27 06:36:34;;;;;;;11.20;1.90;;;18.10;99.90;;;;;;5087918;28;20066;-67
2022/08/27 06:39:00;;;;;;;9.73;1.52;;;18.10;99.90;;;;;;5119934;27;20104;-68
2022/08/27 06:41:27;;;;;;;11.18;2.00;;;18.10;99.90;;;;;;5087682;28;20094;-67
2022/08/27 06:43:55;;;;;;;8.02;1.83;;;18.20;99.90;;;;;;5118813;27;20418;-93
2022/08/27 06:46:24;;;;;;;17.00;2.28;;;18.20;99.90;;;;;;5090133;28;20039;-68
2022/08/27 06:48:58;;;;;;;8.10;1.80;;;18.30;99.90;;;;;;5086042;28;20052;-67
2022/08/27 06:51:27;;;;;;;11.45;1.77;;;18.30;99.90;;;;;;5087974;28;20462;-69
2022/08/27 06:53:55;;;;;;;11.43;2.45;;;18.30;99.90;;;;;;5086820;28;20490;-67
2022/08/27 06:56:22;;;;;;;14.00;2.00;;;18.30;99.90;;;;;;5086659;28;20032;-68
2022/08/27 06:58:50;;;;;;;13.00;2.08;;;18.30;99.90;;;;;;5097581;28;20216;-68
2022/08/27 07:01:48;;;;;;;9.18;2.05;;;18.30;99.70;;;;;;5085256;28;20601;-67
2022/08/27 07:04:20;;;;;;;6.75;1.52;;;18.30;99.90;;;;;;5061464;28;20091;-67
2022/08/27 07:06:45;;;;;;;10.57;1.95;;;18.30;97.30;;;;;;5086169;28;20561;-74
2022/08/27 07:09:13;;;;;;;8.57;1.50;;;18.30;95.10;;;;;;5118137;27;20125;-67
2022/08/27 07:11:39;;;;;;;8.88;1.67;;;18.20;92.00;;;;;;5087442;28;20047;-68
2022/08/27 07:14:05;;;;;;;10.75;1.98;;;18.20;92.70;;;;;;5100834;28;20036;-67
2022/08/27 07:16:31;;;;;;;9.02;2.00;;;18.20;95.90;;;;;;5094504;28;20023;-73
2022/08/27 07:18:59;;;;;;;9.50;1.60;;;18.10;97.00;;;;;;5090864;28;20508;-68
2022/08/27 07:21:26;;;;;;;12.77;2.22;;;18.20;97.40;;;;;;5102690;28;20051;-75
2022/08/27 07:23:53;;;;;;;14.43;1.42;;;18.40;96.10;;;;;;5086245;28;20838;-67
2022/08/27 07:26:20;;;;;;;12.02;2.35;;;18.70;97.80;;;;;;5087532;28;20040;-67
2022/08/27 07:28:47;;;;;;;8.23;1.63;;;18.60;93.30;;;;;;5086571;28;20091;-87
2022/08/27 07:31:16;;;;;;;13.90;1.52;;;18.50;96.30;;;;;;5085362;28;20036;-67
2022/08/27 07:33:42;;;;;;;12.73;1.77;;;18.40;95.50;;;;;;5087082;28;20031;-87
2022/08/27 07:36:08;;;;;;;15.43;2.58;;;18.40;95.80;;;;;;5084854;28;20084;-67
2022/08/27 07:38:35;;;;;;;13.25;1.60;;;18.40;94.00;;;;;;5095799;28;20078;-67
2022/08/27 07:41:09;;;;;;;8.85;1.95;;;18.40;96.40;;;;;;5085687;28;20036;-86
2022/08/27 07:46:20;;;;;;;12.68;2.08;;;18.50;96.70;;;;;;5086559;28;20036;-68
2022/08/27 07:48:47;;;;;;;9.35;1.85;;;18.60;97.90;;;;;;5092391;28;20036;-68
2022/08/27 07:51:16;;;;;;;13.57;2.03;;;18.80;91.60;;;;;;5086460;28;20036;-68
2022/08/27 07:53:43;;;;;;;13.43;1.70;;;19.20;95.20;;;;;;5085153;28;20128;-67
2022/08/27 07:56:08;;;;;;;8.27;1.58;;;19.40;92.00;;;;;;5086454;28;20051;-67
2022/08/27 07:58:34;;;;;;;12.32;2.58;;;19.30;92.20;;;;;;5116929;28;20029;-90
2022/08/27 08:01:01;;;;;;;9.65;1.90;;;19.30;93.30;;;;;;5085890;28;20503;-68
2022/08/27 08:03:26;;;;;;;13.52;1.70;;;19.10;90.90;;;;;;5086562;28;20040;-67
2022/08/27 08:05:53;;;;;;;14.32;2.95;;;19.10;94.70;;;;;;5085191;28;20397;-94
2022/08/27 08:08:19;;;;;;;11.73;1.95;;;19.20;95.80;;;;;;5087097;28;20176;-73
2022/08/27 08:10:46;;;;;;;13.15;1.77;;;19.20;82.60;;;;;;5084409;28;20036;-68
2022/08/27 08:13:13;;;;;;;8.57;1.90;;;19.10;82.60;;;;;;5090730;28;20044;-68
2022/08/27 08:15:40;;;;;;;9.63;1.88;;;19.20;89.80;;;;;;5088939;28;20651;-67
2022/08/27 08:18:06;;;;;;;10.13;2.13;;;19.30;88.70;;;;;;5089690;28;20059;-68
2022/08/27 08:20:31;;;;;;;11.60;2.15;;;19.60;85.90;;;;;;5092653;28;20085;-66
2022/08/27 08:22:57;;;;;;;8.73;1.58;;;19.70;90.70;;;;;;5088089;28;20044;-67
2022/08/27 08:25:23;;;;;;;12.95;1.85;;;19.50;80.30;;;;;;5090132;28;20284;-67
2022/08/27 08:27:49;;;;;;;11.07;1.85;;;19.50;83.80;;;;;;5086904;28;20478;-67
2022/08/27 08:30:14;;;;;;;8.27;2.25;;;19.60;81.70;;;;;;5098974;28;20069;-67
2022/08/27 08:32:42;;;;;;;9.07;2.05;;;19.70;84.50;;;;;;5091852;28;20079;-67
2022/08/27 08:35:08;;;;;;;12.90;2.15;;;19.60;82.70;;;;;;5089961;28;20134;-67
2022/08/27 08:37:35;;;;;;;9.77;1.67;;;19.60;80.60;;;;;;5088002;28;20052;-67
2022/08/27 08:40:01;;;;;;;7.30;1.70;;;19.40;88.40;;;;;;5090335;28;20459;-67
2022/08/27 08:42:36;;;;;;;16.50;2.22;;;19.30;86.10;;;;;;5089645;28;20123;-67
2022/08/27 08:45:05;;;;;;;9.05;1.65;;;19.30;90.90;;;;;;5088367;28;20040;-67
2022/08/27 08:47:55;;;;;;;8.73;1.80;;;19.20;81.20;;;;;;5089895;28;20039;-67
2022/08/27 08:50:40;;;;;;;11.32;1.75;;;19.50;73.40;;;;;;5087894;28;20808;-74
2022/08/27 08:53:13;;;;;;;8.68;2.03;;;19.90;74.20;;;;;;5083666;28;20082;-67
2022/08/27 08:55:53;;;;;;;11.40;1.83;;;20.10;64.70;;;;;;5122555;27;20043;-67
2022/08/27 08:58:26;;;;;;;11.00;1.92;;;19.90;60.40;;;;;;5087460;28;20457;-67
2022/08/27 09:00:55;;;;;;;10.43;1.80;;;19.70;72.60;;;;;;5090633;28;20062;-67
2022/08/27 09:03:22;;;;;;;10.70;1.92;;;19.60;74.00;;;;;;5083240;28;20439;-67
2022/08/27 09:06:04;;;;;;;11.30;1.77;;;19.70;68.20;;;;;;5104357;28;20048;-67
2022/08/27 09:08:39;;;;;;;6.53;1.85;;;19.80;78.00;;;;;;5088984;28;20113;-67
2022/08/27 09:11:31;;;;;;;7.43;1.60;;;19.90;74.80;;;;;;5088133;28;20320;-68
2022/08/27 09:14:01;;;;;;;11.30;1.67;;;20.00;74.10;;;;;;5083611;28;20044;-67
2022/08/27 09:16:27;;;;;;;10.32;1.80;;;19.90;69.00;;;;;;5088161;28;20036;-66
2022/08/27 09:18:53;;;;;;;13.55;2.22;;;19.60;76.10;;;;;;5088341;28;20043;-74
2022/08/27 09:21:28;;;;;;;8.38;2.22;;;19.50;79.90;;;;;;5121495;27;20032;-90
2022/08/27 09:24:31;;;;;;;9.80;1.83;;;19.40;84.90;;;;;;5092554;28;20043;-68
2022/08/27 09:26:57;;;;;;;9.38;1.92;;;19.20;85.10;;;;;;5089496;28;20113;-89
2022/08/27 09:29:27;;;;;;;7.18;1.80;;;19.20;90.60;;;;;;5103674;28;20127;-70
2022/08/27 09:31:54;;;;;;;;;;;19.20;87.20;;;;;;5089197;28;20036;-69
2022/08/27 09:34:20;;;;;;;10.00;2.08;;;19.30;80.40;;;;;;5090917;28;19924;-69
2022/08/27 09:37:05;;;;;;;8.57;1.77;;;19.20;77.30;;;;;;5090272;28;20101;-72
2022/08/27 09:39:33;;;;;;;11.45;1.65;;;19.20;75.80;;;;;;5093590;28;20040;-68
2022/08/27 09:42:00;;;;;;;7.57;1.33;;;19.20;90.10;;;;;;5093099;28;20083;-68
2022/08/27 09:44:26;;;;;;;10.55;2.05;;;19.30;93.80;;;;;;5094186;28;20036;-69
2022/08/27 09:46:59;;;;;;;9.32;2.03;;;19.30;87.90;;;;;;5088922;28;20043;-68
2022/08/27 09:49:25;;;;;;;10.38;1.90;;;19.40;82.20;;;;;;5103979;28;20082;-69
2022/08/27 09:51:53;;;;;;;5.85;2.10;;;19.40;83.40;;;;;;5089992;28;20678;-69
2022/08/27 09:54:46;;;;;;;14.80;2.20;;;19.50;83.50;;;;;;5087531;28;20059;-69
2022/08/27 09:57:25;;;;;;;9.98;1.60;;;19.50;81.60;;;;;;5087978;28;20078;-69
2022/08/27 09:59:53;;;;;;;3.72;1.35;;;19.50;83.00;;;;;;5086422;28;20059;-68
2022/08/27 10:02:22;;;;;;;7.22;1.63;;;19.50;75.00;;;;;;5087040;28;20032;-69
2022/08/27 10:04:53;;;;;;;8.90;1.92;;;19.60;80.00;;;;;;5087998;28;20050;-69
2022/08/27 10:07:32;;;;;;;6.85;1.55;;;19.60;71.80;;;;;;5085883;28;20067;-69
2022/08/27 10:10:22;;;;;;;8.23;1.60;;;19.60;70.70;;;;;;5088164;28;20571;-92
2022/08/27 10:13:00;;;;;;;5.68;1.40;;;19.50;68.00;;;;;;5087462;28;20040;-86
2022/08/27 10:15:35;;;;;;;8.85;2.13;;;19.80;70.90;;;;;;5097823;28;20039;-69
2022/08/27 10:18:37;;;;;;;4.97;1.17;;;19.90;62.90;;;;;;5073823;28;20088;-68
2022/08/27 10:21:26;;;;;;;7.47;2.22;;;19.70;66.70;;;;;;5086233;28;20032;-87
2022/08/27 10:24:07;;;;;;;4.63;1.08;;;19.70;67.50;;;;;;5085821;28;20119;-68
2022/08/27 10:26:44;;;;;;;6.90;1.50;;;19.90;74.00;;;;;;5097653;28;20588;-78
2022/08/27 10:29:43;;;;;;;9.75;1.30;;;20.00;72.00;;;;;;5084698;28;20085;-87
2022/08/27 10:32:18;;;;;;;9.63;1.48;;;20.10;69.30;;;;;;5087864;28;20048;-68
2022/08/27 10:35:02;;;;;;;8.45;1.60;;;20.50;72.40;;;;;;5086296;28;20393;-67
2022/08/27 10:37:46;;;;;;;8.45;2.08;;;20.40;71.40;;;;;;5076150;28;20465;-68
2022/08/27 10:40:20;;;;;;;8.35;1.95;;;20.30;69.10;;;;;;5087991;28;20086;-68
2022/08/27 10:42:55;;;;;;;10.57;2.00;;;20.20;74.90;;;;;;5086624;28;20123;-68
2022/08/27 10:45:41;;;;;;;5.65;1.33;;;20.40;70.90;;;;;;5086531;28;20036;-67
2022/08/27 10:48:29;;;;;;;8.77;1.60;;;20.50;68.60;;;;;;5082488;28;20044;-67
2022/08/27 10:51:20;;;;;;;9.57;1.73;;;20.30;67.60;;;;;;5085838;28;20051;-67
2022/08/27 10:53:53;;;;;;;6.95;1.48;;;20.10;60.30;;;;;;5087366;28;20047;-67
2022/08/27 10:56:43;;;;;;;8.02;1.67;;;20.10;65.60;;;;;;5088082;28;20122;-67
2022/08/27 10:59:35;;;;;;;4.15;1.60;;;20.00;67.90;;;;;;5085373;28;20044;-67
2022/08/27 11:02:54;;;;;;;5.75;1.20;;;19.80;62.40;;;;;;5077187;28;20530;-67
2022/08/27 11:05:27;;;;;;;9.23;1.42;;;19.90;65.50;;;;;;5084335;28;20067;-68
2022/08/27 11:08:08;;;;;;;7.47;1.58;;;20.20;68.20;;;;;;5093605;28;20047;-68
2022/08/27 11:10:42;;;;;;;7.75;1.55;;;20.40;63.10;;;;;;5087819;28;20501;-81
2022/08/27 11:13:16;;;;;;;8.38;1.65;;;20.50;62.30;;;;;;5086441;28;20040;-67
2022/08/27 11:15:45;;;;;;;12.68;1.65;;;20.50;66.40;;;;;;5086352;28;20109;-67
2022/08/27 11:18:11;;;;;;;8.32;1.50;;;20.30;66.90;;;;;;5094973;28;20516;-67
2022/08/27 11:20:48;;;;;;;11.35;1.58;;;20.30;71.50;;;;;;5092032;28;20446;-67
2022/08/27 11:23:17;;;;;;;13.65;2.08;;;20.40;70.60;;;;;;5087512;28;20453;-68
2022/08/27 11:25:55;;;;;;;;;;;20.50;73.70;;;;;;5085752;28;20063;-78
2022/08/27 11:28:40;;;;;;;7.10;1.35;;;20.60;61.80;;;;;;5074319;28;19924;-68
2022/08/27 11:31:18;;;;;;;6.32;1.40;;;20.80;69.70;;;;;;5086970;28;20506;-67
2022/08/27 11:34:14;;;;;;;3.90;1.33;;;21.00;60.20;;;;;;5118030;28;20056;-67
2022/08/27 11:37:17;;;;;;;5.45;1.10;;;21.00;56.30;;;;;;5085123;28;20549;-67
2022/08/27 11:40:04;;;;;;;5.85;1.25;;;20.90;53.40;;;;;;5094652;28;20508;-68
2022/08/27 11:42:40;;;;;;;5.80;1.50;;;20.80;50.00;;;;;;5084709;28;20068;-67
2022/08/27 11:45:07;;;;;;;10.48;1.65;;;20.80;54.70;;;;;;5088041;28;20040;-71
2022/08/27 11:47:32;;;;;;;9.68;1.75;;;20.80;51.40;;;;;;5089276;28;20070;-67
2022/08/27 11:50:00;;;;;;;6.38;1.45;;;20.80;51.40;;;;;;5096254;28;20485;-78
2022/08/27 11:52:52;;;;;;;4.85;1.20;;;20.70;45.90;;;;;;5088886;28;20044;-67
2022/08/27 11:55:20;;;;;;;6.95;1.13;;;20.70;46.90;;;;;;5089395;28;20072;-77
2022/08/27 11:58:02;;;;;;;8.60;1.73;;;20.60;43.10;;;;;;5091194;28;20043;-72
2022/08/27 12:00:32;;;;;;;8.02;1.65;;;20.60;54.30;;;;;;5094685;28;20059;-67
2022/08/27 12:02:59;;;;;;;5.85;1.20;;;20.70;54.60;;;;;;5090071;28;20044;-78
2022/08/27 12:05:54;;;;;;;4.97;1.35;;;20.80;49.00;;;;;;5089959;28;20059;-67
2022/08/27 12:08:20;;;;;;;6.22;1.50;;;20.80;45.80;;;;;;5087764;28;20048;-67
2022/08/27 12:10:52;;;;;;;4.75;1.30;;;20.90;46.70;;;;;;5091037;28;20047;-67
2022/08/27 12:13:51;;;;;;;9.85;1.58;;;20.90;54.90;;;;;;5089228;28;20082;-67
2022/08/27 12:16:17;;;;;;;6.78;1.42;;;20.80;59.70;;;;;;5089743;28;20048;-67
2022/08/27 12:18:55;;;;;;;4.75;1.38;;;20.80;63.90;;;;;;5090475;28;20047;-71
2022/08/27 12:21:27;;;;;;;8.52;1.45;;;20.80;56.90;;;;;;5089813;28;20058;-67
2022/08/27 12:24:01;;;;;;;7.82;1.15;;;20.80;56.30;;;;;;5090452;28;20063;-67
2022/08/27 12:26:41;;;;;;;6.93;1.10;;;20.70;64.00;;;;;;5088505;28;20657;-68
2022/08/27 12:29:16;;;;;;;9.98;1.55;;;20.80;62.80;;;;;;5089192;28;20508;-68
2022/08/27 12:31:46;;;;;;;8.75;1.95;;;21.00;64.00;;;;;;5089504;28;20044;-67
2022/08/27 12:34:17;;;;;;;8.48;1.55;;;21.10;70.00;;;;;;5088640;28;20044;-66
2022/08/27 12:36:47;;;;;;;13.82;1.73;;;21.20;67.70;;;;;;5089375;28;20050;-68
2022/08/27 12:39:19;;;;;;;8.32;1.77;;;21.10;64.80;;;;;;5088674;28;20432;-89
2022/08/27 12:41:48;;;;;;;8.60;1.80;;;21.00;67.20;;;;;;5089188;28;20048;-67
2022/08/27 12:44:25;;;;;;;6.77;1.50;;;20.90;61.70;;;;;;5089631;28;20043;-67
2022/08/27 12:46:57;;;;;;;7.22;1.48;;;20.90;59.80;;;;;;5088490;28;20047;-67
2022/08/27 12:49:26;;;;;;;6.90;1.58;;;21.00;60.80;;;;;;5122724;27;20087;-88
2022/08/27 12:51:54;;;;;;;9.30;1.88;;;21.00;68.40;;;;;;5091074;28;20055;-72
2022/08/27 12:54:23;;;;;;;9.70;1.58;;;21.20;60.60;;;;;;5099106;28;20048;-80
2022/08/27 12:57:20;;;;;;;5.13;1.50;;;21.00;62.10;;;;;;5088244;28;20043;-67
2022/08/27 12:59:55;;;;;;;8.55;1.70;;;20.90;58.80;;;;;;5087573;28;20052;-67
2022/08/27 13:02:57;;;;;;;7.32;1.30;;;20.90;62.70;;;;;;5092556;28;20118;-67
2022/08/27 13:05:24;;;;;;;10.77;1.75;;;20.80;62.50;;;;;;5090469;28;20032;-67
2022/08/27 13:07:52;;;;;;;9.05;1.83;;;20.40;63.70;;;;;;5103876;28;20455;-67
2022/08/27 13:10:23;;;;;;;11.43;1.63;;;20.10;64.60;;;;;;5089567;28;20109;-67